createdAt,value
2023-02-11T00:00:44.363Z,103071.19
2023-02-11T00:03:11.255Z,103072.97
2023-02-11T00:05:38.277Z,103064.97
2023-02-11T00:08:05.397Z,103066.75
2023-02-11T00:10:32.291Z,103065.81
2023-02-11T00:12:59.232Z,103058.63
2023-02-11T00:15:26.114Z,103054.19
2023-02-11T00:17:52.867Z,103056.88
2023-02-11T00:20:19.761Z,103059.56
2023-02-11T00:22:46.622Z,103056.03
2023-02-11T00:25:13.477Z,103057.78
2023-02-11T00:27:40.297Z,103059.56
2023-02-11T00:30:07.970Z,103058.66
2023-02-11T00:32:34.837Z,103056.03
2023-02-11T00:35:01.714Z,103050.59
2023-02-11T00:37:28.861Z,103047.06
2023-02-11T00:39:55.680Z,103047.97
2023-02-11T00:42:22.466Z,103048.88
2023-02-11T00:44:49.243Z,103052.47
2023-02-11T00:47:17.151Z,103053.38
2023-02-11T00:49:44.190Z,103056.03
2023-02-11T00:52:11.033Z,103055.13
2023-02-11T00:54:38.471Z,103063.16
2023-02-11T00:57:06.873Z,103051.53
2023-02-11T00:59:33.716Z,103058.72
2023-02-11T01:02:01.548Z,103056.03
2023-02-11T01:04:28.578Z,103059.59
2023-02-11T01:06:55.396Z,103054.25
2023-02-11T01:09:22.244Z,103062.28
2023-02-11T01:11:49.107Z,103062.28
2023-02-11T01:14:16.470Z,103062.31
2023-02-11T01:16:43.323Z,103056.06
2023-02-11T01:19:10.545Z,103070.34
2023-02-11T01:21:37.418Z,103068.59
2023-02-11T01:24:04.383Z,103079.25
2023-02-11T01:26:31.178Z,103071.19
2023-02-11T01:29:00.144Z,103072.06
2023-02-11T01:31:28.336Z,103062.22
2023-02-11T01:33:55.249Z,103053.25
2023-02-11T01:36:22.355Z,103051.53
2023-02-11T01:38:50.003Z,103048.84
2023-02-11T01:41:19.558Z,103032.78
2023-02-11T01:43:49.826Z,103020.25
2023-02-11T01:46:38.203Z,103007.78
2023-02-11T01:49:16.369Z,103000.63
2023-02-11T01:51:55.077Z,103008.75
2023-02-11T01:54:44.453Z,103015.03
2023-02-11T01:57:22.113Z,103013.28
2023-02-11T02:00:00.110Z,103015.97
2023-02-11T02:02:42.740Z,103015.09
2023-02-11T02:05:40.197Z,103012.44
2023-02-11T02:08:14.786Z,103015.09
2023-02-11T02:10:47.652Z,103016.06
2023-02-11T02:13:17.426Z,103033.91
2023-02-11T02:16:01.109Z,103039.25
2023-02-11T02:19:01.916Z,103037.44
2023-02-11T02:22:06.157Z,103040.09
2023-02-11T02:25:10.757Z,103023.13
2023-02-11T02:28:03.197Z,103019.59
2023-02-11T02:30:44.869Z,103029.38
2023-02-11T02:33:24.079Z,103029.38
2023-02-11T02:36:31.047Z,103017.78
2023-02-11T02:39:07.683Z,103014.22
2023-02-11T02:41:39.064Z,103010.69
2023-02-11T02:44:08.650Z,103008.03
2023-02-11T02:46:37.299Z,103012.53
2023-02-11T02:49:12.695Z,103017.06
2023-02-11T02:52:15.473Z,103016.25
2023-02-11T02:54:53.217Z,103024.38
2023-02-11T02:57:50.826Z,103024.38
2023-02-11T03:01:04.731Z,103026.22
2023-02-11T03:04:23.399Z,103017.22
2023-02-11T03:07:17.919Z,103017.22
2023-02-11T03:10:00.434Z,103009.19
2023-02-11T03:12:33.116Z,103010.06
2023-02-11T03:15:03.815Z,103015.41
2023-02-11T03:17:35.799Z,103001.16
2023-02-11T03:20:10.089Z,103008.34
2023-02-11T03:23:19.020Z,102992.25
2023-02-11T03:25:56.128Z,103002.97
2023-02-11T03:28:37.276Z,103001.22
2023-02-11T03:31:17.899Z,103015.53
2023-02-11T03:34:04.176Z,103008.34
2023-02-11T03:36:50.063Z,103008.34
2023-02-11T03:39:25.694Z,103010.97
2023-02-11T03:41:58.606Z,103006.50
2023-02-11T03:44:33.229Z,103008.31
2023-02-11T03:47:03.838Z,103004.72
2023-02-11T03:49:33.728Z,103001.22
2023-02-11T03:52:03.634Z,102996.78
2023-02-11T03:54:31.274Z,102992.38
2023-02-11T03:57:01.582Z,102994.19
2023-02-11T03:59:29.376Z,102990.66
2023-02-11T04:01:57.733Z,102994.19
2023-02-11T04:04:24.629Z,102986.19
2023-02-11T04:06:51.512Z,102980.81
2023-02-11T04:09:18.397Z,102962.03
2023-02-11T04:11:45.198Z,102967.41
2023-02-11T04:14:11.984Z,102964.72
2023-02-11T04:16:38.833Z,102963.00
2023-02-11T04:19:05.663Z,102967.50
2023-02-11T04:21:32.435Z,102965.69
2023-02-11T04:23:59.253Z,102966.53
2023-02-11T04:26:26.098Z,102971.88
2023-02-11T04:28:52.962Z,102965.63
2023-02-11T04:31:19.869Z,102976.34
2023-02-11T04:33:46.887Z,102970.97
2023-02-11T04:36:13.759Z,102982.59
2023-02-11T04:38:40.512Z,102978.97
2023-02-11T04:41:07.345Z,102987.00
2023-02-11T04:43:34.164Z,102992.34
2023-02-11T04:46:01.048Z,102992.25
2023-02-11T04:48:27.998Z,103001.16
2023-02-11T04:50:54.794Z,103004.69
2023-02-11T04:53:21.637Z,102992.16
2023-02-11T04:55:53.449Z,102995.72
2023-02-11T04:58:20.999Z,102997.47
2023-02-11T05:00:48.202Z,102980.50
2023-02-11T05:03:16.689Z,102984.09
2023-02-11T05:05:44.274Z,102987.69
2023-02-11T05:08:12.037Z,102999.28
2023-02-11T05:10:39.462Z,103004.66
2023-02-11T05:13:06.264Z,102996.59
2023-02-11T05:15:33.778Z,102995.72
2023-02-11T05:18:01.138Z,102990.34
2023-02-11T05:20:28.309Z,102981.41
2023-02-11T05:22:55.338Z,102985.00
2023-02-11T05:25:22.155Z,102985.00
2023-02-11T05:27:48.979Z,102992.13
2023-02-11T05:30:15.883Z,102979.56
2023-02-11T05:32:42.662Z,102977.81
2023-02-11T05:35:09.594Z,102981.34
2023-02-11T05:37:36.666Z,102975.06
2023-02-11T05:40:04.305Z,102980.41
2023-02-11T05:42:31.156Z,102981.25
2023-02-11T05:44:58.124Z,102982.13
2023-02-11T05:47:25.097Z,102983.00
2023-02-11T05:49:53.478Z,102989.25
2023-02-11T05:52:22.219Z,102978.50
2023-02-11T05:54:49.432Z,102976.69
2023-02-11T05:57:17.228Z,102986.53
2023-02-11T05:59:44.417Z,102981.97
2023-02-11T06:02:12.390Z,102973.97
2023-02-11T06:04:39.260Z,102975.75
2023-02-11T06:07:06.091Z,102976.66
2023-02-11T06:09:32.971Z,102980.25
2023-02-11T06:11:59.767Z,102994.53
2023-02-11T06:14:26.606Z,102993.66
2023-02-11T06:16:53.392Z,102998.97
2023-02-11T06:19:20.350Z,102997.19
2023-02-11T06:21:47.173Z,103000.72
2023-02-11T06:24:13.999Z,103002.56
2023-02-11T06:26:41.062Z,102997.19
2023-02-11T06:29:07.899Z,102999.84
2023-02-11T06:31:34.986Z,102998.91
2023-02-11T06:34:01.915Z,103007.88
2023-02-11T06:36:28.777Z,103003.41
2023-02-11T06:38:55.701Z,103003.38
2023-02-11T06:41:22.920Z,103006.06
2023-02-11T06:43:52.779Z,103006.06
2023-02-11T06:46:19.746Z,103004.28
2023-02-11T06:48:46.653Z,103003.41
2023-02-11T06:51:14.961Z,103003.41
2023-02-11T06:53:47.332Z,102997.16
2023-02-11T06:56:24.412Z,102998.91
2023-02-11T06:58:58.117Z,103004.28
2023-02-11T07:01:27.819Z,103000.69
2023-02-11T07:03:54.811Z,103005.13
2023-02-11T07:06:27.963Z,103003.31
2023-02-11T07:08:55.862Z,103014.03
2023-02-11T07:11:28.440Z,103019.38
2023-02-11T07:14:01.220Z,103023.88
2023-02-11T07:16:28.505Z,103020.28
2023-02-11T07:18:55.365Z,103016.69
2023-02-11T07:21:24.353Z,103018.41
2023-02-11T07:23:52.285Z,103017.50
2023-02-11T07:26:23.149Z,103027.31
2023-02-11T07:28:51.476Z,103022.78
2023-02-11T07:31:28.790Z,103039.78
2023-02-11T07:33:59.924Z,103036.19
2023-02-11T07:36:29.495Z,103037.03
2023-02-11T07:38:56.785Z,103036.13
2023-02-11T07:41:25.305Z,103037.84
2023-02-11T07:43:52.799Z,103037.84
2023-02-11T07:46:25.683Z,103043.19
2023-02-11T07:48:53.759Z,103052.13
2023-02-11T07:51:29.952Z,103053.03
2023-02-11T07:53:59.647Z,103053.91
2023-02-11T07:56:28.058Z,103051.22
2023-02-11T07:58:56.887Z,103061.00
2023-02-11T08:01:28.382Z,103059.16
2023-02-11T08:04:00.865Z,103062.72
2023-02-11T08:06:34.611Z,103048.38
2023-02-11T08:09:07.941Z,103061.78
2023-02-11T08:11:35.643Z,103055.47
2023-02-11T08:14:03.156Z,103065.28
2023-02-11T08:16:34.703Z,103056.28
2023-02-11T08:19:06.695Z,103062.50
2023-02-11T08:21:33.736Z,103058.97
2023-02-11T08:24:02.992Z,103077.66
2023-02-11T08:26:32.835Z,103068.75
2023-02-11T08:28:59.738Z,103071.41
2023-02-11T08:31:35.194Z,103076.75
2023-02-11T08:34:02.528Z,103078.50
2023-02-11T08:36:42.433Z,103077.59
2023-02-11T08:39:20.832Z,103078.44
2023-02-11T08:41:54.355Z,103076.59
2023-02-11T08:44:22.803Z,103076.56
2023-02-11T08:46:51.368Z,103069.34
2023-02-11T08:49:18.276Z,103073.75
2023-02-11T08:51:45.888Z,103074.59
2023-02-11T08:54:13.883Z,103077.22
2023-02-11T08:56:41.225Z,103085.22
2023-02-11T08:59:12.549Z,103081.59
2023-02-11T09:01:39.550Z,103075.25
2023-02-11T09:04:06.449Z,103076.09
2023-02-11T09:06:33.632Z,103079.63
2023-02-11T09:09:00.503Z,103084.13
2023-02-11T09:11:33.080Z,103097.53
2023-02-11T09:14:01.552Z,103086.72
2023-02-11T09:16:32.345Z,103090.28
2023-02-11T09:19:01.741Z,103094.69
2023-02-11T09:21:29.907Z,103093.69
2023-02-11T09:23:57.666Z,103107.94
2023-02-11T09:26:31.378Z,103108.81
2023-02-11T09:28:59.228Z,103106.06
2023-02-11T09:31:29.310Z,103104.22
2023-02-11T09:34:01.181Z,103105.97
2023-02-11T09:36:33.910Z,103112.28
2023-02-11T09:39:02.734Z,103109.53
2023-02-11T09:41:59.229Z,103111.28
2023-02-11T09:44:32.652Z,103113.88
2023-02-11T09:47:15.908Z,103109.34
2023-02-11T09:49:52.966Z,103113.78
2023-02-11T09:52:51.865Z,103120.84
2023-02-11T09:55:26.481Z,103118.03
2023-02-11T09:57:53.714Z,103125.13
2023-02-11T10:00:33.095Z,103129.50
2023-02-11T10:03:37.374Z,103128.50
2023-02-11T10:06:24.004Z,103133.84
2023-02-11T10:09:29.216Z,103137.41
2023-02-11T10:12:44.401Z,103136.53
2023-02-11T10:15:46.509Z,103140.13
2023-02-11T10:19:14.980Z,103145.44
2023-02-11T10:22:19.985Z,103155.44
2023-02-11T10:25:00.189Z,103160.84
2023-02-11T10:27:33.374Z,103162.59
2023-02-11T10:30:32.262Z,103167.03
2023-02-11T10:33:27.567Z,103170.53
2023-02-11T10:35:54.474Z,103178.59
2023-02-11T10:38:21.670Z,103169.63
2023-02-11T10:40:48.674Z,103171.38
2023-02-11T10:43:19.604Z,103179.44
2023-02-11T10:45:52.933Z,103179.41
2023-02-11T10:48:40.213Z,103181.09
2023-02-11T10:51:14.609Z,103184.69
2023-02-11T10:53:42.334Z,103188.22
2023-02-11T10:56:22.177Z,103186.47
2023-02-11T10:59:01.945Z,103185.50
2023-02-11T11:02:01.733Z,103190.03
2023-02-11T11:04:42.383Z,103191.84
2023-02-11T11:07:14.315Z,103195.38
2023-02-11T11:09:55.859Z,103190.78
2023-02-11T11:12:35.097Z,103193.31
2023-02-11T11:15:22.989Z,103195.81
2023-02-11T11:18:20.788Z,103195.69
2023-02-11T11:21:07.578Z,103196.50
2023-02-11T11:23:38.204Z,103201.84
2023-02-11T11:26:14.198Z,103207.16
2023-02-11T11:28:50.938Z,103204.34
2023-02-11T11:31:24.814Z,103211.53
2023-02-11T11:33:55.440Z,103211.53
2023-02-11T11:36:34.105Z,103210.69
2023-02-11T11:39:17.476Z,103211.56
2023-02-11T11:42:00.554Z,103206.19
2023-02-11T11:44:39.841Z,103203.34
2023-02-11T11:47:13.399Z,103189.78
2023-02-11T11:50:35.566Z,103190.47
2023-02-11T11:53:18.743Z,103196.63
2023-02-11T11:55:53.512Z,103192.03
2023-02-11T11:58:23.816Z,103189.00
2023-02-11T12:01:27.772Z,103192.19
2023-02-11T12:04:29.739Z,103191.03
2023-02-11T12:07:40.402Z,103188.44
2023-02-11T12:10:42.417Z,103188.44
2023-02-11T12:13:48.935Z,103181.34
2023-02-11T12:17:00.314Z,103175.88
2023-02-11T12:19:35.783Z,103181.19
2023-02-11T12:22:27.162Z,103170.16
2023-02-11T12:25:13.137Z,103170.84
2023-02-11T12:28:45.832Z,103171.38
2023-02-11T12:31:26.871Z,103163.13
2023-02-11T12:34:12.504Z,103154.09
2023-02-11T12:37:14.822Z,103154.78
2023-02-11T12:40:06.481Z,103148.84
2023-02-11T12:43:07.074Z,103150.19
2023-02-11T12:46:07.336Z,103139.91
2023-02-11T12:49:05.095Z,103148.50
2023-02-11T12:51:56.482Z,103149.88
2023-02-11T12:54:37.308Z,103156.56
2023-02-11T12:57:23.119Z,103153.91
2023-02-11T13:00:08.617Z,103153.69
2023-02-11T13:02:56.457Z,103144.25
2023-02-11T13:05:58.757Z,103151.59
2023-02-11T13:08:50.113Z,103148.91
2023-02-11T13:11:24.421Z,103155.22
2023-02-11T13:14:32.585Z,103148.25
2023-02-11T13:17:00.115Z,103150.88
2023-02-11T13:19:34.181Z,103157.56
2023-02-11T13:22:21.204Z,103155.13
2023-02-11T13:25:10.927Z,103161.25
2023-02-11T13:28:22.716Z,103162.81
2023-02-11T13:30:57.842Z,103149.81
2023-02-11T13:33:42.908Z,103155.44
2023-02-11T13:36:09.697Z,103161.13
2023-02-11T13:38:38.133Z,103152.06
2023-02-11T13:41:21.131Z,103159.16
2023-02-11T13:44:10.359Z,103147.25
2023-02-11T13:47:07.467Z,103146.25
2023-02-11T13:49:40.783Z,103141.94
2023-02-11T13:52:38.826Z,103150.31
2023-02-11T13:55:21.637Z,103145.63
2023-02-11T13:58:08.392Z,103156.34
2023-02-11T14:00:35.247Z,103154.81
2023-02-11T14:03:29.775Z,103157.97
2023-02-11T14:06:27.588Z,103150.13
2023-02-11T14:09:09.688Z,103146.72
2023-02-11T14:12:31.659Z,103152.91
2023-02-11T14:15:07.762Z,103147.59
2023-02-11T14:17:35.358Z,103151.06
2023-02-11T14:20:24.714Z,103146.59
2023-02-11T14:22:54.279Z,103156.53
2023-02-11T14:25:27.025Z,103154.69
2023-02-11T14:28:11.509Z,103159.88
2023-02-11T14:30:51.433Z,103172.41
2023-02-11T14:33:47.469Z,103158.91
2023-02-11T14:36:43.852Z,103155.25
2023-02-11T14:39:53.144Z,103154.31
2023-02-11T14:42:26.696Z,103150.84
2023-02-11T14:44:59.006Z,103154.41
2023-02-11T14:47:56.262Z,103152.53
2023-02-11T14:50:33.139Z,103167.03
2023-02-11T14:53:03.212Z,103177.00
2023-02-11T14:55:38.075Z,103170.09
2023-02-11T14:58:24.032Z,103169.31
2023-02-11T15:01:08.966Z,103168.53
2023-02-11T15:03:42.602Z,103172.13
2023-02-11T15:06:32.742Z,103165.88
2023-02-11T15:09:07.793Z,103170.41
2023-02-11T15:11:41.329Z,103169.38
2023-02-11T15:14:17.075Z,103166.72
2023-02-11T15:16:46.727Z,103165.84
2023-02-11T15:19:34.617Z,103168.59
2023-02-11T15:22:07.159Z,103169.66
2023-02-11T15:24:35.541Z,103176.91
2023-02-11T15:27:08.440Z,103173.38
2023-02-11T15:29:39.785Z,103183.38
2023-02-11T15:32:13.921Z,103186.13
2023-02-11T15:34:41.798Z,103189.84
2023-02-11T15:37:17.103Z,103191.66
2023-02-11T15:39:44.161Z,103191.84
2023-02-11T15:42:38.072Z,103197.44
2023-02-11T15:45:17.044Z,103195.66
2023-02-11T15:47:54.489Z,103193.06
2023-02-11T15:50:29.417Z,103196.66
2023-02-11T15:53:01.144Z,103191.22
2023-02-11T15:55:29.829Z,103186.72
2023-02-11T15:58:01.461Z,103197.50
2023-02-11T16:00:44.860Z,103190.41
2023-02-11T16:03:32.743Z,103193.97
2023-02-11T16:06:22.870Z,103195.91
2023-02-11T16:09:23.456Z,103199.69
2023-02-11T16:11:50.209Z,103196.22
2023-02-11T16:14:39.385Z,103198.19
2023-02-11T16:17:30.056Z,103188.44
2023-02-11T16:19:56.928Z,103193.03
2023-02-11T16:22:30.097Z,103193.09
2023-02-11T16:25:00.133Z,103182.41
2023-02-11T16:27:41.601Z,103193.19
2023-02-11T16:30:32.520Z,103186.09
2023-02-11T16:32:59.376Z,103187.97
2023-02-11T16:35:26.347Z,103196.97
2023-02-11T16:37:54.400Z,103195.19
2023-02-11T16:40:23.527Z,103207.75
2023-02-11T16:42:52.451Z,103208.75
2023-02-11T16:45:19.581Z,103208.78
2023-02-11T16:47:46.541Z,103211.50
2023-02-11T16:50:24.038Z,103206.22
2023-02-11T16:52:52.422Z,103208.06
2023-02-11T16:55:21.975Z,103209.88
2023-02-11T16:57:49.693Z,103200.97
2023-02-11T17:00:18.488Z,103219.84
2023-02-11T17:02:45.742Z,103216.31
2023-02-11T17:05:20.323Z,103220.00
2023-02-11T17:07:47.284Z,103227.25
2023-02-11T17:10:23.663Z,103221.94
2023-02-11T17:12:51.432Z,103231.03
2023-02-11T17:15:18.424Z,103233.75
2023-02-11T17:17:45.917Z,103229.28
2023-02-11T17:20:14.414Z,103238.28
2023-02-11T17:22:41.653Z,103232.94
2023-02-11T17:25:12.561Z,103235.66
2023-02-11T17:27:39.493Z,103240.13
2023-02-11T17:30:07.349Z,103248.16
2023-02-11T17:32:34.529Z,103248.16
2023-02-11T17:35:02.719Z,103250.00
2023-02-11T17:37:30.361Z,103259.91
2023-02-11T17:39:57.171Z,103258.16
2023-02-11T17:42:24.021Z,103266.22
2023-02-11T17:44:50.836Z,103273.38
2023-02-11T17:47:17.725Z,103267.09
2023-02-11T17:49:45.231Z,103267.09
2023-02-11T17:52:12.084Z,103268.94
2023-02-11T17:54:39.084Z,103276.13
2023-02-11T17:57:05.997Z,103268.06
2023-02-11T17:59:35.426Z,103274.38
2023-02-11T18:02:04.761Z,103277.16
2023-02-11T18:04:33.394Z,103278.09
2023-02-11T18:07:00.404Z,103279.06
2023-02-11T18:09:27.433Z,103283.59
2023-02-11T18:11:54.730Z,103288.03
2023-02-11T18:14:22.848Z,103286.28
2023-02-11T18:16:52.767Z,103288.91
2023-02-11T18:19:20.727Z,103288.03
2023-02-11T18:21:50.193Z,103279.13
2023-02-11T18:24:18.253Z,103289.00
2023-02-11T18:26:45.201Z,103298.88
2023-02-11T18:29:12.265Z,103298.97
2023-02-11T18:31:40.002Z,103300.81
2023-02-11T18:34:10.594Z,103307.94
2023-02-11T18:36:37.575Z,103308.88
2023-02-11T18:39:05.065Z,103309.78
2023-02-11T18:41:32.068Z,103305.28
2023-02-11T18:44:01.220Z,103306.25
2023-02-11T18:46:29.843Z,103304.44
2023-02-11T18:48:56.704Z,103300.88
2023-02-11T18:51:23.580Z,103302.66
2023-02-11T18:53:50.536Z,103296.44
2023-02-11T18:56:21.840Z,103300.00
2023-02-11T18:58:51.356Z,103307.19
2023-02-11T19:01:27.460Z,103304.50
2023-02-11T19:03:58.098Z,103305.44
2023-02-11T19:06:29.340Z,103308.13
2023-02-11T19:09:01.270Z,103308.19
2023-02-11T19:11:49.856Z,103310.91
2023-02-11T19:14:24.059Z,103314.47
2023-02-11T19:16:56.365Z,103318.88
2023-02-11T19:19:25.397Z,103318.88
2023-02-11T19:21:52.295Z,103319.75
2023-02-11T19:24:19.950Z,103324.28
2023-02-11T19:26:48.989Z,103328.78
2023-02-11T19:29:16.930Z,103326.13
2023-02-11T19:31:44.519Z,103322.50
2023-02-11T19:34:15.366Z,103331.50
2023-02-11T19:36:42.551Z,103338.69
2023-02-11T19:39:10.296Z,103328.78
2023-02-11T19:41:37.263Z,103325.22
2023-02-11T19:44:06.631Z,103339.56
2023-02-11T19:46:38.353Z,103334.19
2023-02-11T19:49:05.569Z,103345.91
2023-02-11T19:51:33.761Z,103353.97
2023-02-11T19:54:01.279Z,103353.09
2023-02-11T19:56:29.279Z,103356.72
2023-02-11T19:58:56.217Z,103355.84
2023-02-11T20:01:25.376Z,103351.34
2023-02-11T20:03:56.605Z,103360.31
2023-02-11T20:06:28.609Z,103358.56
2023-02-11T20:08:58.802Z,103372.03
2023-02-11T20:11:29.147Z,103366.66
2023-02-11T20:13:57.099Z,103371.16
2023-02-11T20:16:44.632Z,103363.13
2023-02-11T20:19:18.245Z,103370.34
2023-02-11T20:21:48.375Z,103380.19
2023-02-11T20:24:17.887Z,103383.69
2023-02-11T20:26:46.850Z,103383.59
2023-02-11T20:29:15.784Z,103388.06
2023-02-11T20:31:43.063Z,103387.22
2023-02-11T20:34:11.694Z,103388.19
2023-02-11T20:36:40.278Z,103388.19
2023-02-11T20:39:08.072Z,103387.19
2023-02-11T20:41:39.762Z,103388.09
2023-02-11T20:44:10.055Z,103392.59
2023-02-11T20:46:40.829Z,103386.22
2023-02-11T20:49:10.513Z,103397.91
2023-02-11T20:51:37.570Z,103397.94
2023-02-11T20:54:06.185Z,103392.63
2023-02-11T20:56:36.943Z,103390.03
2023-02-11T20:59:05.854Z,103405.25
2023-02-11T21:01:41.402Z,103400.84
2023-02-11T21:04:18.939Z,103401.81
2023-02-11T21:06:50.118Z,103417.06
2023-02-11T21:09:21.239Z,103417.00
2023-02-11T21:11:51.660Z,103417.88
2023-02-11T21:14:20.709Z,103413.38
2023-02-11T21:16:48.375Z,103420.53
2023-02-11T21:19:16.120Z,103422.34
2023-02-11T21:21:43.160Z,103419.69
2023-02-11T21:24:11.299Z,103422.41
2023-02-11T21:26:38.755Z,103430.53
2023-02-11T21:29:07.765Z,103437.72
2023-02-11T21:31:35.692Z,103436.81
2023-02-11T21:34:02.838Z,103438.59
2023-02-11T21:36:30.497Z,103441.22
2023-02-11T21:38:58.855Z,103439.34
2023-02-11T21:41:27.368Z,103447.44
2023-02-11T21:43:54.474Z,103446.59
2023-02-11T21:46:22.898Z,103443.06
2023-02-11T21:48:50.440Z,103448.50
2023-02-11T21:51:24.437Z,103440.41
2023-02-11T21:54:03.572Z,103456.59
2023-02-11T21:56:33.330Z,103456.66
2023-02-11T21:59:00.699Z,103452.19
2023-02-11T22:01:35.578Z,103459.41
2023-02-11T22:04:02.397Z,103464.81
2023-02-11T22:06:34.281Z,103459.41
2023-02-11T22:09:09.606Z,103455.88
2023-02-11T22:11:37.405Z,103449.66
2023-02-11T22:14:05.135Z,103452.34
2023-02-11T22:16:32.409Z,103459.56
2023-02-11T22:19:00.247Z,103460.53
2023-02-11T22:21:28.642Z,103463.16
2023-02-11T22:23:56.317Z,103450.66
2023-02-11T22:26:25.835Z,103450.66
2023-02-11T22:28:53.782Z,103440.75
2023-02-11T22:31:26.369Z,103445.16
2023-02-11T22:33:53.692Z,103446.00
2023-02-11T22:36:27.809Z,103449.59
2023-02-11T22:38:55.941Z,103452.31
2023-02-11T22:41:23.594Z,103458.63
2023-02-11T22:43:50.642Z,103458.69
2023-02-11T22:46:19.699Z,103464.91
2023-02-11T22:48:48.010Z,103464.00
2023-02-11T22:51:22.776Z,103468.50
2023-02-11T22:53:59.390Z,103464.09
2023-02-11T22:56:28.607Z,103469.50
2023-02-11T22:59:05.787Z,103466.78
2023-02-11T23:01:33.572Z,103462.28
2023-02-11T23:04:04.351Z,103463.09
2023-02-11T23:06:31.744Z,103463.06
2023-02-11T23:08:58.662Z,103462.22
2023-02-11T23:11:30.918Z,103461.38
2023-02-11T23:13:58.621Z,103460.53
2023-02-11T23:16:31.234Z,103460.56
2023-02-11T23:19:08.949Z,103454.31
2023-02-11T23:21:38.926Z,103464.22
2023-02-11T23:24:12.248Z,103458.84
2023-02-11T23:26:41.499Z,103463.31
2023-02-11T23:29:09.778Z,103452.63
2023-02-11T23:31:40.396Z,103461.56
2023-02-11T23:34:08.608Z,103457.94
2023-02-11T23:36:35.832Z,103459.75
2023-02-11T23:39:03.336Z,103459.72
2023-02-11T23:41:30.275Z,103465.13
2023-02-11T23:43:58.100Z,103468.66
2023-02-11T23:46:27.629Z,103470.47
2023-02-11T23:48:54.785Z,103466.84
2023-02-11T23:51:23.597Z,103462.34
2023-02-11T23:53:54.131Z,103467.75
2023-02-11T23:56:26.482Z,103464.22
2023-02-11T23:58:56.450Z,103465.13
